Latest Weather Observations for Nowra

IDN60901

Issued at 12:21 pm EST Sunday 28 August 2016 (issued every 10 minutes, with the page automatically refreshed every 10 minutes)

About weather observations | Map of Canberra area stations | Latest observations for Canberra area | Other Formats
Station Details ID: 068072 Name: NOWRA RAN AIR STATION AWS Lat: -34.95 Lon: 150.54 Height: 109.0 m
Data from the previous 72 hours. | See also: Recent months at Nowra
Date/Time
EST
Temp
°C
App
Temp
°C
Dew
Point
°C
Rel
Hum
%
Delta-T
°C
Wind Press
QNH
hPa
Press
MSL
hPa
Rain since
9am
mm
Dir  Spd
km/h
Gust
km/h
Spd
kts
Gust
kts
28/12:00pm 16.1 9.3 2.9 41 6.0 W 28 35 15 19 1021.2 1021.3 0.0
28/11:30am 17.2 11.9 3.1 39 6.5 WNW 20 28 11 15 1021.3 1021.4 0.0
28/11:00am 16.6 10.8 2.2 38 6.5 WNW 22 32 12 17 1021.6 1021.7 0.0
28/10:30am 16.2 10.3 1.5 37 6.5 WSW 22 28 12 15 1021.8 1021.9 0.0
28/10:00am 15.5 8.4 1.6 39 6.1 W 28 35 15 19 1021.9 1022.0 0.0
28/09:30am 14.9 9.0 1.8 41 5.8 WNW 22 32 12 17 1021.9 1022.0 0.0
28/09:00am 13.9 8.0 1.9 44 5.2 W 22 30 12 16 1021.8 1021.9 0.0
28/08:30am 12.9 6.7 1.9 47 4.8 WNW 24 32 13 17 1021.9 1022.0 0.0
28/08:00am 11.6 5.4 2.1 52 4.1 WNW 24 30 13 16 1021.8 1021.9 0.0
28/07:30am 10.3 4.4 1.7 55 3.6 WNW 22 30 12 16 1021.6 1021.7 0.0
28/07:00am 9.6 3.3 1.5 57 3.4 WNW 24 30 13 16 1021.4 1021.5 0.0
28/06:30am 8.7 3.7 1.4 60 3.0 W 17 22 9 12 1020.9 1021.0 0.0
28/06:00am 8.6 6.1 1.3 60 3.0 SW 4 17 2 9 1020.5 1020.6 0.0
28/05:30am 9.2 4.2 1.1 57 3.3 WNW 17 30 9 16 1020.0 1020.1 0.0
28/05:00am 9.3 4.2 1.0 56 3.4 WNW 17 30 9 16 1019.8 1019.9 0.0
28/04:30am 9.6 2.1 1.0 55 3.5 WNW 30 43 16 23 1019.6 1019.7 0.0
28/04:00am 9.6 2.5 1.3 56 3.4 WNW 28 43 15 23 1019.4 1019.5 0.0
28/03:30am 9.7 3.7 1.1 55 3.6 NW 22 33 12 18 1019.3 1019.4 0.0
28/03:07am 9.6 1.7 1.3 56 3.4 WNW 32 50 17 27 1019.0 1019.1 0.0
28/03:00am 10.0 1.2 1.1 54 3.7 WNW 37 50 20 27 1019.1 1019.2 0.0
28/02:30am 10.0 3.3 1.4 55 3.6 NW 26 43 14 23 1019.3 1019.4 0.0
28/02:16am 9.9 2.8 1.5 56 3.5 NW 28 46 15 25 1019.4 1019.5 0.0
28/02:00am 9.8 2.8 1.7 57 3.4 NW 28 41 15 22 1019.5 1019.6 0.0
28/01:30am 9.8 2.8 1.7 57 3.4 NW 28 41 15 22 1019.9 1020.0 0.0
28/01:00am 10.1 2.3 1.7 56 3.5 WNW 32 41 17 22 1020.0 1020.1 0.0
28/12:30am 10.3 3.6 1.7 55 3.6 NW 26 35 14 19 1020.2 1020.3 0.0
28/12:00am 10.6 3.6 1.9 55 3.7 NW 28 37 15 20 1020.5 1020.6 0.0
 
Date/Time
EST
Temp
°C
App
Temp
°C
Dew
Point
°C
Rel
Hum
%
Delta-T
°C
Wind Press
QNH
hPa
Press
MSL
hPa
Rain since
9am
mm
Dir  Spd
km/h
Gust
km/h
Spd
kts
Gust
kts
27/11:30pm 10.5 3.1 2.1 56 3.6 NW 30 46 16 25 1020.6 1020.7 0.0
27/11:00pm 10.8 3.4 1.9 54 3.8 WNW 30 41 16 22 1020.7 1020.8 0.0
27/10:30pm 10.5 3.9 2.1 56 3.6 WNW 26 35 14 19 1020.7 1020.8 0.0
27/10:00pm 10.9 3.6 2.2 55 3.7 WNW 30 41 16 22 1020.7 1020.8 0.0
27/09:30pm 10.9 4.3 2.2 55 3.7 WNW 26 37 14 20 1020.7 1020.8 0.0
27/09:00pm 11.3 4.8 2.6 55 3.8 WNW 26 35 14 19 1020.6 1020.7 0.0
27/08:30pm 11.6 5.9 2.6 54 3.9 NW 22 30 12 16 1020.5 1020.6 0.0
27/08:00pm 11.9 6.6 2.9 54 3.9 NW 20 28 11 15 1020.4 1020.5 0.0
27/07:30pm 11.5 6.8 3.0 56 3.7 NW 17 20 9 11 1020.3 1020.4 0.0
27/07:00pm 12.8 7.5 2.9 51 4.4 NW 20 32 11 17 1020.2 1020.3 0.0
27/06:30pm 12.6 7.4 2.7 51 4.4 WNW 19 24 10 13 1020.2 1020.3 0.0
27/06:00pm 11.6 8.5 3.6 58 3.6 WNW 9 11 5 6 1019.7 1019.8 0.0
27/05:30pm 13.9 9.8 2.5 46 5.1 NW 13 17 7 9 1019.2 1019.3 0.0
27/05:00pm 15.6 10.7 2.1 40 6.0 WNW 17 24 9 13 1019.1 1019.2 0.0
27/04:30pm 16.5 10.9 1.0 35 6.8 NW 20 28 11 15 1018.9 1019.0 0.0
27/04:00pm 17.2 11.5 0.4 32 7.3 NW 20 28 11 15 1019.1 1019.2 0.0
27/03:30pm 18.0 11.9 0.2 30 7.8 NW 22 30 12 16 1018.9 1019.0 0.0
27/03:00pm 17.8 11.9 -0.9 28 8.0 NNW 20 30 11 16 1019.1 1019.2 0.0
27/02:30pm 18.1 11.7 -1.7 26 8.3 NW 22 32 12 17 1019.3 1019.4 0.0
27/02:00pm 18.0 12.3 -0.8 28 8.0 NW 19 24 10 13 1019.5 1019.6 0.0
27/01:30pm 17.1 11.9 -0.1 31 7.4 NNW 17 24 9 13 1019.8 1019.9 0.0
27/01:00pm 16.7 11.2 -1.9 28 7.7 NNW 17 24 9 13 1020.0 1020.1 0.0
27/12:30pm 16.3 11.0 -0.4 32 7.1 NNW 17 26 9 14 1020.5 1020.6 0.0
27/12:00pm 16.1 11.6 2.2 39 6.2 NNW 15 26 8 14 1021.1 1021.2 0.0
27/11:30am 15.1 10.6 2.3 42 5.7 NNW 15 26 8 14 1021.7 1021.8 0.0
27/11:00am 15.0 10.4 3.5 46 5.2 NNW 17 22 9 12 1022.3 1022.4 0.0
27/10:30am 13.9 10.1 3.9 51 4.6 NW 13 19 7 10 1022.4 1022.5 0.0
27/10:00am 12.5 7.5 3.7 55 3.9 NW 19 24 10 13 1022.8 1022.8 0.0
27/09:30am 11.5 6.5 3.5 58 3.6 NW 19 22 10 12 1022.6 1022.7 0.0
27/09:00am 10.3 5.1 3.6 63 2.9 NW 20 26 11 14 1022.4 1022.5 0.0
27/08:30am 9.2 3.9 3.0 65 2.7 NW 20 28 11 15 1022.3 1022.4 0.0
27/08:00am 8.0 1.9 2.5 68 2.3 NW 24 32 13 17 1022.2 1022.3 0.0
27/07:30am 7.3 1.6 2.6 72 2.0 NW 22 30 12 16 1022.0 1022.1 0.0
27/07:00am 6.1 0.7 2.6 78 1.4 NW 20 26 11 14 1021.9 1022.0 0.0
27/06:30am 5.4 0.2 2.6 82 1.1 NW 19 24 10 13 1021.8 1021.9 0.0
27/06:00am 5.6 0.2 2.6 81 1.2 NW 20 26 11 14 1021.7 1021.8 0.0
27/05:30am 5.5 0.3 2.7 82 1.2 NW 19 22 10 12 1021.6 1021.7 0.0
27/05:00am 5.6 0.8 2.6 81 1.2 NW 17 20 9 11 1021.4 1021.5 0.0
27/04:30am 5.7 0.9 2.7 81 1.2 NW 17 20 9 11 1021.3 1021.4 0.0
27/04:00am 6.0 1.2 2.8 80 1.3 NNW 17 20 9 11 1021.0 1021.1 0.0
27/03:30am 5.6 0.8 2.8 82 1.2 NW 17 20 9 11 1021.1 1021.2 0.0
27/03:00am 5.7 1.0 3.0 83 1.1 NW 17 20 9 11 1021.1 1021.2 0.0
27/02:30am 5.8 1.5 3.3 84 1.0 WNW 15 17 8 9 1021.2 1021.3 0.0
27/02:00am 6.0 1.3 3.3 83 1.1 WNW 17 19 9 10 1021.3 1021.4 0.0
27/01:30am 6.7 1.5 3.5 80 1.4 WNW 20 24 11 13 1021.3 1021.4 0.0
27/01:00am 6.5 1.6 4.3 86 0.9 WNW 19 22 10 12 1021.5 1021.6 0.0
27/12:30am 6.5 2.1 4.7 88 0.8 NW 17 20 9 11 1021.5 1021.6 0.0
27/12:00am 6.5 2.9 5.0 90 0.7 WNW 13 17 7 9 1021.6 1021.7 0.0
 
Date/Time
EST
Temp
°C
App
Temp
°C
Dew
Point
°C
Rel
Hum
%
Delta-T
°C
Wind Press
QNH
hPa
Press
MSL
hPa
Rain since
9am
mm
Dir  Spd
km/h
Gust
km/h
Spd
kts
Gust
kts
26/11:30pm 6.8 2.8 5.1 89 0.8 WNW 15 17 8 9 1021.6 1021.7 0.0
26/11:00pm 7.3 3.0 5.4 88 0.8 WNW 17 20 9 11 1021.6 1021.7 0.0
26/10:30pm 7.3 3.0 5.4 88 0.8 WNW 17 19 9 10 1021.4 1021.5 0.0
26/10:00pm 7.5 3.2 5.3 86 1.0 WNW 17 19 9 10 1021.2 1021.3 0.0
26/09:30pm 8.0 3.4 5.6 85 1.1 W 19 20 10 11 1021.0 1021.1 0.0
26/09:00pm 8.0 4.2 5.8 86 1.0 W 15 17 8 9 1020.8 1020.9 0.0
26/08:30pm 8.3 4.5 5.8 84 1.1 WNW 15 17 8 9 1020.6 1020.7 0.0
26/08:00pm 7.9 5.7 5.5 85 1.1 WNW 6 9 3 5 1020.4 1020.5 0.0
26/07:30pm 7.3 6.2 5.3 87 0.9 CALM 0 0 0 0 1020.3 1020.4 0.0
26/07:00pm 8.6 5.9 5.5 81 1.4 W 9 11 5 6 1020.0 1020.1 0.0
26/06:30pm 8.4 6.1 5.7 83 1.2 W 7 9 4 5 1019.8 1019.9 0.0
26/06:00pm 8.7 5.6 5.4 80 1.5 SW 11 13 6 7 1019.3 1019.4 0.0
26/05:30pm 11.2 8.4 5.1 66 2.8 SSW 9 11 5 6 1019.1 1019.2 0.0
26/05:00pm 13.1 9.9 5.0 58 3.8 SSE 11 17 6 9 1018.8 1018.8 0.0
26/04:30pm 13.8 9.4 4.7 54 4.2 SSE 17 24 9 13 1018.5 1018.5 0.0
26/04:00pm 14.3 9.5 4.9 53 4.4 SSE 19 24 10 13 1018.2 1018.2 0.0
26/03:30pm 14.5 9.5 3.6 48 5.0 SSE 19 22 10 12 1017.9 1017.9 0.0
26/03:00pm 14.9 9.9 3.7 47 5.1 SSE 19 24 10 13 1017.8 1017.8 0.0
26/02:30pm 14.5 9.2 3.0 46 5.2 SSE 20 26 11 14 1017.8 1017.8 0.0
26/02:00pm 14.8 10.5 3.3 46 5.2 SSE 15 24 8 13 1017.9 1017.9 0.0
26/01:30pm 15.4 11.3 4.5 48 5.1 SSE 15 22 8 12 1017.8 1017.8 0.0
26/01:00pm 14.8 9.9 1.7 41 5.7 SSW 17 28 9 15 1018.1 1018.1 0.0
26/12:30pm 14.9 10.8 2.4 43 5.6 S 13 22 7 12 1018.3 1018.3 0.0
26/12:00pm 14.6 9.8 2.5 44 5.4 SSW 17 22 9 12 1018.5 1018.5 0.0
26/11:30am 14.2 8.9 2.1 44 5.3 SSE 19 28 10 15 1018.8 1018.8 0.0
26/11:00am 13.8 7.6 2.1 45 5.1 S 24 30 13 16 1019.1 1019.2 0.0
26/10:30am 13.6 8.4 3.4 50 4.6 SSW 20 28 11 15 1019.1 1019.2 0.0
26/10:00am 13.4 8.8 3.5 51 4.5 SSW 17 24 9 13 1019.1 1019.2 0.0
26/09:30am 12.3 6.3 1.3 47 4.7 SSW 22 37 12 20 1019.2 1019.3 0.0
26/09:00am 11.8 7.3 2.3 52 4.1 WSW 15 20 8 11 1019.2 1019.3 0.4
26/08:30am 9.5 5.1 2.6 62 2.9 WNW 15 17 8 9 1019.1 1019.2 0.4
26/08:00am 7.8 3.7 2.1 67 2.4 W 13 19 7 10 1018.9 1019.0 0.4
26/07:30am 6.4 2.6 1.9 73 1.8 W 11 13 6 7 1018.6 1018.6 0.4
26/07:00am 4.9 0.7 1.9 81 1.2 W 13 17 7 9 1018.2 1018.2 0.4
26/06:30am 5.1 0.5 1.8 79 1.3 WNW 15 19 8 10 1017.8 1017.8 0.4
26/06:00am 4.9 0.7 1.9 81 1.2 WNW 13 17 7 9 1017.6 1017.6 0.4
26/05:30am 5.4 1.2 1.9 78 1.4 WNW 13 15 7 8 1017.2 1017.2 0.4
26/05:00am 5.6 0.7 1.9 77 1.5 WNW 17 20 9 11 1016.8 1016.8 0.4
26/04:30am 5.4 0.9 2.4 81 1.2 WNW 15 17 8 9 1016.4 1016.4 0.4
26/04:00am 5.9 1.1 2.4 78 1.4 W 17 20 9 11 1016.1 1016.1 0.4
26/03:30am 5.5 0.7 2.5 81 1.2 WNW 17 20 9 11 1015.9 1015.9 0.4
26/03:00am 5.8 1.0 2.4 79 1.4 WNW 17 19 9 10 1015.6 1015.6 0.4
26/02:30am 6.3 1.5 2.8 78 1.5 WNW 17 19 9 10 1015.5 1015.5 0.4
26/02:00am 6.5 1.4 3.3 80 1.3 W 19 22 10 12 1015.7 1015.7 0.4
26/01:30am 6.5 2.3 4.0 84 1.1 W 15 19 8 10 1015.8 1015.8 0.4
26/01:00am 7.1 2.3 4.6 84 1.1 W 19 22 10 12 1015.9 1015.9 0.4
26/12:30am 7.1 2.5 5.4 89 0.8 WSW 19 26 10 14 1016.2 1016.2 0.4
26/12:00am 7.2 2.7 6.1 93 0.5 SSW 19 24 10 13 1016.1 1016.1 0.4
 
Date/Time
EST
Temp
°C
App
Temp
°C
Dew
Point
°C
Rel
Hum
%
Delta-T
°C
Wind Press
QNH
hPa
Press
MSL
hPa
Rain since
9am
mm
Dir  Spd
km/h
Gust
km/h
Spd
kts
Gust
kts
25/11:30pm 7.7 3.1 6.3 91 0.6 S 20 33 11 18 1016.3 1016.3 0.0
25/11:00pm 8.3 4.3 6.8 90 0.7 S 17 22 9 12 1016.1 1016.1 0.0
25/10:30pm 8.9 4.2 6.2 83 1.2 SSW 20 28 11 15 1015.7 1015.7 0.0
25/10:00pm 9.0 5.0 4.8 75 1.9 SW 15 24 8 13 1015.4 1015.4 0.0
25/09:30pm 9.7 5.2 4.3 69 2.4 WNW 17 20 9 11 1014.5 1014.5 0.0
25/09:00pm 8.7 7.7 5.4 80 1.5 CALM 0 0 0 0 1014.3 1014.3 0.0
25/08:30pm 9.6 8.5 5.2 74 2.0 CALM 0 0 0 0 1014.1 1014.1 0.0
25/08:00pm 9.6 7.4 5.2 74 2.0 SW 6 9 3 5 1014.0 1014.0 0.0
25/07:30pm 9.6 3.9 5.0 73 2.1 SSW 24 35 13 19 1013.7 1013.7 0.0
25/07:00pm 11.0 7.8 6.7 75 2.0 W 13 20 7 11 1013.1 1013.1 0.0
25/06:30pm 10.1 7.7 7.0 81 1.5 W 9 13 5 7 1012.3 1012.4 0.0
25/06:00pm 10.7 10.0 6.8 77 1.9 CALM 0 0 0 0 1011.8 1011.9 0.0
25/05:30pm 12.1 11.0 5.0 62 3.3 CALM 0 0 0 0 1011.3 1011.4 0.0
25/05:00pm 12.2 9.5 5.4 63 3.2 SSE 9 9 5 5 1010.9 1011.0 0.0
25/04:30pm 13.0 10.5 4.9 58 3.8 SSE 7 9 4 5 1010.7 1010.7 0.0
25/04:00pm 13.4 9.7 4.6 55 4.1 SE 13 15 7 8 1010.2 1010.2 0.0
25/03:30pm 14.4 10.7 4.4 51 4.6 SE 13 20 7 11 1010.1 1010.1 0.0
25/03:00pm 14.4 9.7 2.9 46 5.2 SE 17 20 9 11 1009.9 1009.9 0.0
25/02:30pm 15.0 11.0 4.7 50 4.8 ESE 15 24 8 13 1009.9 1009.9 0.0
25/02:00pm 15.8 11.1 3.3 43 5.7 WSW 17 30 9 16 1009.9 1009.9 0.0
25/01:30pm 15.0 10.6 2.9 44 5.5 WSW 15 22 8 12 1009.7 1009.7 0.0
25/01:00pm 13.7 10.2 3.5 50 4.6 SSE 11 22 6 12 1009.6 1009.6 0.0
25/12:30pm 13.5 10.4 3.6 51 4.5 SSE 9 17 5 9 1009.9 1009.9 0.0

Latest Capital City Observations: Canberra | Sydney | Melbourne | Brisbane | Adelaide | Perth | Hobart | Darwin

Other Formats:

Comma delimited format used in spreadsheet applications
http://www.bom.gov.au/fwo/IDN60903/IDN60903.94750.axf

JavaScript Object Notation format (JSON) in row-major order
http://www.bom.gov.au/fwo/IDN60903/IDN60903.94750.json